createdAt,value
2019-05-14T00:00:24.936Z,8.26
2019-05-14T00:01:24.847Z,8.23
2019-05-14T00:02:24.762Z,8.23
2019-05-14T00:03:24.686Z,8.26
2019-05-14T00:04:24.601Z,8.19
2019-05-14T00:05:24.511Z,8.30
2019-05-14T00:06:24.436Z,8.29
2019-05-14T00:07:24.348Z,8.33
2019-05-14T00:08:24.287Z,8.20
2019-05-14T00:09:24.186Z,8.28
2019-05-14T00:10:24.099Z,8.20
2019-05-14T00:11:24.025Z,8.26
2019-05-14T00:12:23.937Z,8.20
2019-05-14T00:13:23.848Z,8.28
2019-05-14T00:14:35.720Z,8.23
2019-05-14T00:15:23.688Z,8.18
2019-05-14T00:16:24.319Z,8.22
2019-05-14T00:17:23.524Z,8.19
2019-05-14T00:18:23.438Z,8.22
2019-05-14T00:19:23.363Z,8.23
2019-05-14T00:20:23.287Z,8.26
2019-05-14T00:21:23.189Z,8.25
2019-05-14T00:22:23.118Z,8.08
2019-05-14T00:23:23.025Z,8.16
2019-05-14T00:24:22.939Z,8.22
2019-05-14T00:25:22.864Z,8.23
2019-05-14T00:26:22.790Z,8.16
2019-05-14T00:27:22.689Z,8.26
2019-05-14T00:28:22.622Z,8.28
2019-05-14T00:29:22.527Z,8.18
2019-05-14T00:30:22.440Z,8.25
2019-05-14T00:31:22.365Z,8.15
2019-05-14T00:32:22.290Z,8.20
2019-05-14T00:33:22.634Z,8.18
2019-05-14T00:34:22.121Z,8.22
2019-05-14T00:35:22.026Z,8.19
2019-05-14T00:36:21.952Z,8.19
2019-05-14T00:37:21.929Z,8.20
2019-05-14T00:38:22.513Z,8.11
2019-05-14T00:39:21.702Z,8.11
2019-05-14T00:40:22.049Z,8.20
2019-05-14T00:41:21.662Z,8.19
2019-05-14T00:42:21.673Z,8.19
2019-05-14T00:43:21.708Z,8.20
2019-05-14T00:44:21.603Z,8.18
2019-05-14T00:45:21.841Z,8.23
2019-05-14T00:46:21.294Z,8.16
2019-05-14T00:47:21.667Z,8.19
2019-05-14T00:48:22.197Z,8.10
2019-05-14T00:49:21.232Z,8.19
2019-05-14T00:50:21.637Z,8.25
2019-05-14T00:51:21.450Z,8.12
2019-05-14T00:52:22.216Z,8.16
2019-05-14T00:53:21.338Z,8.07
2019-05-14T00:54:21.502Z,8.11
2019-05-14T00:55:22.117Z,8.15
2019-05-14T00:56:21.605Z,8.01
2019-05-14T00:57:21.163Z,8.05
2019-05-14T00:58:21.800Z,8.07
2019-05-14T00:59:21.652Z,8.12
2019-05-14T01:00:21.872Z,8.05
2019-05-14T01:01:21.524Z,8.08
2019-05-14T01:02:21.599Z,8.08
2019-05-14T01:03:21.590Z,8.11
2019-05-14T01:04:19.632Z,8.18
2019-05-14T01:05:21.386Z,8.19
2019-05-14T01:06:21.728Z,8.18
2019-05-14T01:07:21.021Z,8.15
2019-05-14T01:08:21.328Z,8.23
2019-05-14T01:09:19.211Z,8.15
2019-05-14T01:10:19.132Z,8.16
2019-05-14T01:11:19.045Z,8.20
2019-05-14T01:12:21.256Z,8.20
2019-05-14T01:13:18.880Z,8.18
2019-05-14T01:14:20.770Z,8.20
2019-05-14T01:15:18.706Z,8.11
2019-05-14T01:16:18.633Z,8.16
2019-05-14T01:17:18.544Z,8.18
2019-05-14T01:18:18.456Z,8.19
2019-05-14T01:19:18.382Z,8.22
2019-05-14T01:20:18.295Z,8.08
2019-05-14T01:21:18.207Z,8.07
2019-05-14T01:22:18.145Z,8.07
2019-05-14T01:23:18.045Z,8.05
2019-05-14T01:24:17.958Z,8.04
2019-05-14T01:25:17.897Z,8.04
2019-05-14T01:26:17.795Z,8.11
2019-05-14T01:27:17.710Z,8.12
2019-05-14T01:28:17.633Z,8.02
2019-05-14T01:29:17.545Z,8.08
2019-05-14T01:30:17.460Z,8.07
2019-05-14T01:31:17.383Z,8.08
2019-05-14T01:32:17.297Z,8.01
2019-05-14T01:33:17.222Z,8.07
2019-05-14T01:34:17.134Z,8.10
2019-05-14T01:35:17.046Z,8.08
2019-05-14T01:36:16.972Z,8.05
2019-05-14T01:37:16.883Z,8.00
2019-05-14T01:38:16.799Z,8.04
2019-05-14T01:39:16.723Z,7.97
2019-05-14T01:40:16.633Z,8.01
2019-05-14T01:41:16.547Z,8.04
2019-05-14T01:42:16.472Z,8.00
2019-05-14T01:43:16.384Z,7.92
2019-05-14T01:44:16.297Z,7.86
2019-05-14T01:45:25.035Z,7.92
2019-05-14T01:46:16.135Z,7.92
2019-05-14T01:47:16.048Z,7.92
2019-05-14T01:48:15.974Z,7.98
2019-05-14T01:49:15.885Z,7.92
2019-05-14T01:50:15.798Z,7.87
2019-05-14T01:51:15.723Z,8.00
2019-05-14T01:52:15.635Z,7.95
2019-05-14T01:53:15.548Z,7.92
2019-05-14T01:54:15.474Z,7.85
2019-05-14T01:55:15.385Z,7.86
2019-05-14T01:56:15.310Z,7.89
2019-05-14T01:57:15.224Z,7.90
2019-05-14T01:58:15.137Z,7.89
2019-05-14T01:59:15.061Z,7.86
2019-05-14T02:00:14.978Z,7.89
2019-05-14T02:01:14.889Z,7.97
2019-05-14T02:02:14.800Z,7.85
2019-05-14T02:03:14.725Z,7.85
2019-05-14T02:04:14.636Z,7.87
2019-05-14T02:05:14.551Z,7.90
2019-05-14T02:06:14.474Z,7.85
2019-05-14T02:07:16.146Z,7.87
2019-05-14T02:08:14.313Z,7.95
2019-05-14T02:09:14.227Z,7.87
2019-05-14T02:10:14.137Z,7.74
2019-05-14T02:11:14.077Z,7.90
2019-05-14T02:12:13.976Z,7.79
2019-05-14T02:13:13.887Z,7.80
2019-05-14T02:14:13.813Z,7.71
2019-05-14T02:15:13.728Z,7.74
2019-05-14T02:16:13.646Z,7.67
2019-05-14T02:17:13.579Z,7.68
2019-05-14T02:18:13.476Z,7.79
2019-05-14T02:19:13.389Z,7.71
2019-05-14T02:20:13.313Z,7.74
2019-05-14T02:21:13.229Z,7.72
2019-05-14T02:22:13.139Z,7.68
2019-05-14T02:23:13.079Z,7.69
2019-05-14T02:24:12.977Z,7.72
2019-05-14T02:25:12.889Z,7.74
2019-05-14T02:26:12.815Z,7.72
2019-05-14T02:27:12.726Z,7.71
2019-05-14T02:28:12.639Z,7.63
2019-05-14T02:29:12.713Z,7.67
2019-05-14T02:30:12.480Z,7.67
2019-05-14T02:31:12.391Z,7.60
2019-05-14T02:32:12.315Z,7.72
2019-05-14T02:33:12.229Z,7.63
2019-05-14T02:34:12.141Z,7.67
2019-05-14T02:35:12.068Z,7.63
2019-05-14T02:36:11.980Z,7.60
2019-05-14T02:37:11.890Z,7.58
2019-05-14T02:38:11.820Z,7.60
2019-05-14T02:39:11.729Z,7.63
2019-05-14T02:40:11.642Z,7.58
2019-05-14T02:41:11.567Z,7.61
2019-05-14T02:42:11.517Z,7.55
2019-05-14T02:43:11.405Z,7.57
2019-05-14T02:44:11.315Z,7.57
2019-05-14T02:45:11.230Z,7.61
2019-05-14T02:46:16.213Z,7.57
2019-05-14T02:47:11.071Z,7.52
2019-05-14T02:48:10.982Z,7.55
2019-05-14T02:49:10.898Z,7.63
2019-05-14T02:50:10.834Z,7.55
2019-05-14T02:51:10.790Z,7.53
2019-05-14T02:52:10.647Z,7.53
2019-05-14T02:53:10.557Z,7.55
2019-05-14T02:54:10.488Z,7.48
2019-05-14T02:55:10.394Z,7.49
2019-05-14T02:56:10.622Z,7.52
2019-05-14T02:57:10.741Z,7.58
2019-05-14T02:58:10.187Z,7.46
2019-05-14T02:59:10.234Z,7.43
2019-05-14T03:00:10.299Z,7.45
2019-05-14T03:01:09.893Z,7.46
2019-05-14T03:02:10.371Z,7.46
2019-05-14T03:03:09.949Z,7.48
2019-05-14T03:04:09.651Z,7.43
2019-05-14T03:05:09.977Z,7.49
2019-05-14T03:06:09.619Z,7.48
2019-05-14T03:07:11.018Z,7.49
2019-05-14T03:08:09.314Z,7.50
2019-05-14T03:09:09.944Z,7.49
2019-05-14T03:10:10.061Z,7.50
2019-05-14T03:11:09.495Z,7.48
2019-05-14T03:12:10.008Z,7.49
2019-05-14T03:13:09.559Z,7.48
2019-05-14T03:14:09.150Z,7.49
2019-05-14T03:15:09.724Z,7.42
2019-05-14T03:16:22.138Z,7.50
2019-05-14T03:17:10.522Z,7.43
2019-05-14T03:18:09.265Z,7.45
2019-05-14T03:19:10.048Z,7.40
2019-05-14T03:20:09.071Z,7.40
2019-05-14T03:21:09.314Z,7.34
2019-05-14T03:22:10.073Z,7.34
2019-05-14T03:23:12.623Z,7.28
2019-05-14T03:24:09.471Z,7.32
2019-05-14T03:25:10.159Z,7.34
2019-05-14T03:26:09.612Z,7.30
2019-05-14T03:27:09.671Z,7.31
2019-05-14T03:28:09.261Z,7.32
2019-05-14T03:29:09.934Z,7.30
2019-05-14T03:30:12.681Z,7.37
2019-05-14T03:31:12.198Z,7.45
2019-05-14T03:32:11.849Z,7.32
2019-05-14T03:33:12.677Z,7.30
2019-05-14T03:34:12.678Z,7.34
2019-05-14T03:35:12.408Z,7.24
2019-05-14T03:36:15.089Z,7.23
2019-05-14T03:37:12.095Z,7.15
2019-05-14T03:38:09.226Z,7.13
2019-05-14T03:39:10.202Z,7.10
2019-05-14T03:40:09.278Z,6.99
2019-05-14T03:41:09.131Z,7.02
2019-05-14T03:42:09.202Z,7.02
2019-05-14T03:43:08.924Z,7.06
2019-05-14T03:44:09.593Z,7.10
2019-05-14T03:45:08.453Z,7.15
2019-05-14T03:46:09.460Z,7.23
2019-05-14T03:47:09.960Z,7.24
2019-05-14T03:48:05.973Z,7.24
2019-05-14T03:49:09.093Z,7.24
2019-05-14T03:50:05.817Z,7.24
2019-05-14T03:51:08.813Z,7.23
2019-05-14T03:52:05.649Z,7.20
2019-05-14T03:53:05.566Z,7.24
2019-05-14T03:54:07.771Z,7.23
2019-05-14T03:55:05.404Z,7.24
2019-05-14T03:56:05.312Z,7.24
2019-05-14T03:57:05.225Z,7.28
2019-05-14T03:58:05.150Z,7.34
2019-05-14T03:59:05.126Z,7.34
2019-05-14T04:00:04.974Z,7.24
2019-05-14T04:01:04.887Z,7.25
2019-05-14T04:02:04.813Z,7.21
2019-05-14T04:03:04.735Z,7.25
2019-05-14T04:04:04.650Z,7.15
2019-05-14T04:05:04.565Z,7.16
2019-05-14T04:06:04.475Z,7.28
2019-05-14T04:07:04.404Z,7.27
2019-05-14T04:08:04.314Z,7.32
2019-05-14T04:09:04.227Z,7.32
2019-05-14T04:10:04.139Z,7.39
2019-05-14T04:11:04.071Z,7.37
2019-05-14T04:12:03.976Z,7.42
2019-05-14T04:13:03.889Z,7.48
2019-05-14T04:14:03.818Z,7.55
2019-05-14T04:15:03.738Z,7.53
2019-05-14T04:16:03.640Z,7.52
2019-05-14T04:17:09.518Z,7.55
2019-05-14T04:18:03.491Z,7.57
2019-05-14T04:19:03.398Z,7.63
2019-05-14T04:20:03.320Z,7.50
2019-05-14T04:21:03.249Z,7.67
2019-05-14T04:22:03.151Z,7.53
2019-05-14T04:23:03.073Z,7.63
2019-05-14T04:24:02.996Z,7.75
2019-05-14T04:25:02.897Z,7.75
2019-05-14T04:26:02.809Z,7.85
2019-05-14T04:27:07.690Z,7.89
2019-05-14T04:28:02.642Z,8.02
2019-05-14T04:29:02.576Z,8.19
2019-05-14T04:30:02.495Z,8.29
2019-05-14T04:31:02.397Z,8.40
2019-05-14T04:32:02.309Z,8.43
2019-05-14T04:33:02.232Z,8.50
2019-05-14T04:34:02.142Z,8.50
2019-05-14T04:35:02.062Z,8.63
2019-05-14T04:36:01.985Z,8.83
2019-05-14T04:37:01.893Z,9.14
2019-05-14T04:38:01.806Z,9.28
2019-05-14T04:39:01.728Z,9.50
2019-05-14T04:40:01.683Z,9.71
2019-05-14T04:41:01.571Z,9.99
2019-05-14T04:42:01.479Z,10.14
2019-05-14T04:43:01.411Z,10.29
2019-05-14T04:44:01.318Z,10.47
2019-05-14T04:45:05.459Z,10.36
2019-05-14T04:46:01.144Z,10.47
2019-05-14T04:47:20.203Z,10.27
2019-05-14T04:48:00.980Z,10.34
2019-05-14T04:49:00.894Z,10.26
2019-05-14T04:50:00.831Z,10.40
2019-05-14T04:51:00.799Z,10.15
2019-05-14T04:52:00.669Z,10.07
2019-05-14T04:53:00.573Z,10.02
2019-05-14T04:54:00.484Z,10.15
2019-05-14T04:55:00.408Z,10.12
2019-05-14T04:56:00.419Z,10.20
2019-05-14T04:57:00.343Z,10.11
2019-05-14T04:58:00.158Z,10.02
2019-05-14T04:59:00.074Z,9.75
2019-05-14T05:00:00.096Z,9.76
2019-05-14T05:01:00.913Z,9.72
2019-05-14T05:02:00.280Z,9.65
2019-05-14T05:03:00.153Z,9.50
2019-05-14T05:03:59.660Z,9.60
2019-05-14T05:04:59.693Z,9.51
2019-05-14T05:05:59.496Z,9.56
2019-05-14T05:06:59.477Z,9.46
2019-05-14T05:07:59.848Z,9.53
2019-05-14T05:09:00.090Z,9.53
2019-05-14T05:09:59.501Z,9.54
2019-05-14T05:11:00.044Z,9.58
2019-05-14T05:11:59.771Z,9.54
2019-05-14T05:12:58.923Z,9.54
2019-05-14T05:13:59.409Z,9.51
2019-05-14T05:14:58.836Z,9.66
2019-05-14T05:15:59.469Z,9.40
2019-05-14T05:16:59.698Z,9.29
2019-05-14T05:17:58.969Z,9.35
2019-05-14T05:18:59.511Z,9.28
2019-05-14T05:19:59.337Z,9.35
2019-05-14T05:20:58.407Z,9.46
2019-05-14T05:21:58.740Z,9.43
2019-05-14T05:22:59.057Z,9.54
2019-05-14T05:23:58.480Z,9.54
2019-05-14T05:24:58.930Z,9.60
2019-05-14T05:25:58.465Z,9.60
2019-05-14T05:26:58.528Z,9.84
2019-05-14T05:27:59.832Z,9.76
2019-05-14T05:29:03.571Z,9.90
2019-05-14T05:29:59.037Z,9.83
2019-05-14T05:30:58.593Z,9.90
2019-05-14T05:31:59.321Z,10.02
2019-05-14T05:32:59.520Z,9.89
2019-05-14T05:33:58.221Z,10.01
2019-05-14T05:34:58.634Z,10.07
2019-05-14T05:35:59.078Z,10.07
2019-05-14T05:36:58.996Z,10.04
2019-05-14T05:37:58.347Z,10.15
2019-05-14T05:38:59.070Z,10.04
2019-05-14T05:39:58.380Z,9.86
2019-05-14T05:40:57.735Z,9.81
2019-05-14T05:41:58.334Z,9.91
2019-05-14T05:42:58.186Z,10.01
2019-05-14T05:43:58.693Z,10.09
2019-05-14T05:44:58.638Z,10.27
2019-05-14T05:45:56.199Z,10.32
2019-05-14T05:46:56.116Z,10.29
2019-05-14T05:47:59.075Z,10.44
2019-05-14T05:48:55.951Z,10.59
2019-05-14T05:49:57.974Z,10.44
2019-05-14T05:50:55.787Z,10.27
2019-05-14T05:51:55.711Z,10.18
2019-05-14T05:52:55.698Z,10.09
2019-05-14T05:53:55.538Z,10.11
2019-05-14T05:54:55.463Z,10.08
2019-05-14T05:55:55.378Z,10.04
2019-05-14T05:56:55.300Z,9.96
2019-05-14T05:57:55.212Z,9.91
2019-05-14T05:58:55.138Z,9.90
2019-05-14T05:59:55.051Z,10.01
2019-05-14T06:00:54.964Z,10.17
2019-05-14T06:01:54.891Z,10.09
2019-05-14T06:02:54.802Z,10.20
2019-05-14T06:03:54.727Z,10.14
2019-05-14T06:04:54.639Z,10.05
2019-05-14T06:05:54.551Z,10.05
2019-05-14T06:06:54.478Z,10.15
2019-05-14T06:07:54.401Z,10.29
2019-05-14T06:08:54.314Z,10.41
2019-05-14T06:09:54.229Z,10.45
2019-05-14T06:10:54.152Z,10.27
2019-05-14T06:11:54.067Z,10.12
2019-05-14T06:12:53.977Z,10.14
2019-05-14T06:13:53.902Z,9.97
2019-05-14T06:14:53.814Z,10.01
2019-05-14T06:15:53.739Z,10.11
2019-05-14T06:16:53.652Z,10.15
2019-05-14T06:17:53.566Z,10.29
2019-05-14T06:18:53.489Z,10.40
2019-05-14T06:19:53.403Z,10.51
2019-05-14T06:20:53.327Z,10.63
2019-05-14T06:21:53.241Z,10.64
2019-05-14T06:22:53.166Z,10.53
2019-05-14T06:23:53.081Z,10.52
2019-05-14T06:24:52.991Z,10.44
2019-05-14T06:25:52.916Z,10.40
2019-05-14T06:26:52.828Z,10.47
2019-05-14T06:27:52.754Z,10.59
2019-05-14T06:28:52.665Z,10.60
2019-05-14T06:29:54.408Z,10.55
2019-05-14T06:30:52.504Z,10.60
2019-05-14T06:31:52.429Z,10.55
2019-05-14T06:32:52.347Z,10.68
2019-05-14T06:33:52.258Z,10.74
2019-05-14T06:34:52.180Z,10.74
2019-05-14T06:35:52.094Z,10.67
2019-05-14T06:36:52.018Z,10.92
2019-05-14T06:37:51.930Z,11.04
2019-05-14T06:38:51.857Z,11.27
2019-05-14T06:39:51.780Z,11.44
2019-05-14T06:40:51.692Z,11.40
2019-05-14T06:41:51.607Z,11.49
2019-05-14T06:42:51.540Z,11.61
2019-05-14T06:43:51.442Z,11.70
2019-05-14T06:44:51.367Z,11.80
2019-05-14T06:45:51.283Z,11.79
2019-05-14T06:46:52.880Z,11.79
2019-05-14T06:47:51.118Z,11.83
2019-05-14T06:48:51.032Z,11.73
2019-05-14T06:49:50.957Z,11.73
2019-05-14T06:50:50.913Z,11.65
2019-05-14T06:51:50.807Z,11.75
2019-05-14T06:52:50.706Z,11.70
2019-05-14T06:53:50.631Z,11.62
2019-05-14T06:54:50.545Z,11.58
2019-05-14T06:55:50.468Z,11.32
2019-05-14T06:56:50.383Z,11.32
2019-05-14T06:57:50.315Z,11.58
2019-05-14T06:58:50.221Z,11.43
2019-05-14T06:59:50.144Z,11.28
2019-05-14T07:00:50.069Z,11.33
2019-05-14T07:01:49.982Z,11.42
2019-05-14T07:02:49.908Z,11.24
2019-05-14T07:03:49.820Z,11.15
2019-05-14T07:04:49.737Z,11.27
2019-05-14T07:05:49.657Z,11.19
2019-05-14T07:06:49.572Z,11.18
2019-05-14T07:07:49.565Z,11.37
2019-05-14T07:08:52.436Z,11.47
2019-05-14T07:09:49.334Z,11.46
2019-05-14T07:10:49.247Z,11.70
2019-05-14T07:11:49.371Z,11.69
2019-05-14T07:12:49.877Z,11.64
2019-05-14T07:13:49.357Z,11.67
2019-05-14T07:14:48.922Z,11.78
2019-05-14T07:15:49.140Z,11.78
2019-05-14T07:16:48.770Z,11.79
2019-05-14T07:17:48.888Z,11.88
2019-05-14T07:18:52.781Z,12.13
2019-05-14T07:19:49.085Z,12.09
2019-05-14T07:20:48.656Z,12.05
2019-05-14T07:21:49.215Z,11.95
2019-05-14T07:22:48.426Z,12.05
2019-05-14T07:23:48.911Z,12.10
2019-05-14T07:24:49.758Z,12.10
2019-05-14T07:25:48.328Z,12.19
2019-05-14T07:26:49.371Z,12.37
2019-05-14T07:27:48.997Z,12.41
2019-05-14T07:28:48.849Z,12.56
2019-05-14T07:29:49.187Z,13.01
2019-05-14T07:30:48.494Z,12.97
2019-05-14T07:31:48.944Z,12.87
2019-05-14T07:32:48.420Z,12.52
2019-05-14T07:33:49.362Z,12.35
2019-05-14T07:34:48.139Z,12.21
2019-05-14T07:35:48.758Z,12.10
2019-05-14T07:36:49.074Z,12.34
2019-05-14T07:37:48.889Z,12.59
2019-05-14T07:38:49.014Z,12.53
2019-05-14T07:39:48.690Z,12.60
2019-05-14T07:40:49.210Z,12.46
2019-05-14T07:41:48.267Z,11.95
2019-05-14T07:42:48.574Z,12.09
2019-05-14T07:43:48.290Z,12.35
2019-05-14T07:44:48.324Z,12.64
2019-05-14T07:45:48.894Z,13.49
2019-05-14T07:46:48.172Z,13.62
2019-05-14T07:47:46.263Z,13.10
2019-05-14T07:49:02.180Z,13.01
2019-05-14T07:49:46.114Z,13.62
2019-05-14T07:50:49.216Z,14.35
2019-05-14T07:51:47.999Z,13.92
2019-05-14T07:52:45.952Z,13.29
2019-05-14T07:53:45.809Z,13.07
2019-05-14T07:54:48.016Z,13.84
2019-05-14T07:55:45.625Z,14.35
2019-05-14T07:56:45.550Z,14.15
2019-05-14T07:57:47.715Z,14.24
2019-05-14T07:58:45.389Z,13.95
2019-05-14T07:59:45.314Z,13.78
2019-05-14T08:00:45.227Z,13.46
2019-05-14T08:01:45.154Z,13.39
2019-05-14T08:02:45.077Z,13.25
2019-05-14T08:03:44.989Z,13.23
2019-05-14T08:04:44.914Z,13.07
2019-05-14T08:05:44.838Z,13.03
2019-05-14T08:06:44.751Z,13.00
2019-05-14T08:07:44.677Z,12.96
2019-05-14T08:08:44.601Z,12.52
2019-05-14T08:09:44.516Z,12.56
2019-05-14T08:10:44.439Z,12.67
2019-05-14T08:11:44.365Z,13.04
2019-05-14T08:12:44.277Z,13.08
2019-05-14T08:13:44.203Z,14.20
2019-05-14T08:14:57.105Z,13.75
2019-05-14T08:15:44.041Z,13.62
2019-05-14T08:16:43.965Z,13.29
2019-05-14T08:17:43.877Z,13.25
2019-05-14T08:18:43.803Z,13.14
2019-05-14T08:19:43.728Z,13.10
2019-05-14T08:20:43.641Z,13.57
2019-05-14T08:21:43.567Z,14.28
2019-05-14T08:22:43.480Z,14.61
2019-05-14T08:23:43.405Z,14.46
2019-05-14T08:24:43.328Z,14.46
2019-05-14T08:25:43.253Z,14.18
2019-05-14T08:26:44.204Z,14.36
2019-05-14T08:27:43.092Z,14.37
2019-05-14T08:28:43.005Z,14.29
2019-05-14T08:29:42.953Z,14.28
2019-05-14T08:30:42.869Z,13.97
2019-05-14T08:31:42.782Z,13.87
2019-05-14T08:32:42.692Z,13.95
2019-05-14T08:33:42.618Z,13.96
2019-05-14T08:34:42.542Z,13.75
2019-05-14T08:35:42.454Z,14.10
2019-05-14T08:36:42.380Z,15.34
2019-05-14T08:37:42.304Z,16.09
2019-05-14T08:38:45.411Z,15.19
2019-05-14T08:39:42.245Z,14.99
2019-05-14T08:40:42.075Z,14.77
2019-05-14T08:41:41.995Z,14.92
2019-05-14T08:42:41.905Z,14.78
2019-05-14T08:43:41.831Z,14.50
2019-05-14T08:44:41.755Z,14.35
2019-05-14T08:45:41.680Z,14.77
2019-05-14T08:46:44.709Z,14.54
2019-05-14T08:47:41.526Z,14.43
2019-05-14T08:48:41.444Z,14.54
2019-05-14T08:49:46.291Z,14.29
2019-05-14T08:50:41.281Z,14.20
2019-05-14T08:51:41.211Z,14.10
2019-05-14T08:52:41.131Z,14.07
2019-05-14T08:53:41.059Z,13.92
2019-05-14T08:54:40.970Z,13.88
2019-05-14T08:55:40.895Z,14.06
2019-05-14T08:56:40.822Z,13.85
2019-05-14T08:57:40.781Z,13.49
2019-05-14T08:58:40.657Z,13.26
2019-05-14T08:59:40.584Z,13.32
2019-05-14T09:00:40.508Z,13.44
2019-05-14T09:01:56.925Z,13.55
2019-05-14T09:02:40.346Z,13.63
2019-05-14T09:03:40.277Z,13.66
2019-05-14T09:04:43.090Z,13.71
2019-05-14T09:05:40.108Z,13.78
2019-05-14T09:06:40.046Z,14.88
2019-05-14T09:07:39.959Z,15.64
2019-05-14T09:08:39.873Z,15.49
2019-05-14T09:09:39.798Z,15.13
2019-05-14T09:10:40.244Z,15.43
2019-05-14T09:11:45.286Z,16.02
2019-05-14T09:12:39.560Z,15.43
2019-05-14T09:13:39.484Z,14.60
2019-05-14T09:14:39.408Z,14.61
2019-05-14T09:15:39.325Z,14.57
2019-05-14T09:16:46.490Z,14.46
2019-05-14T09:17:39.340Z,14.37
2019-05-14T09:18:39.086Z,14.09
2019-05-14T09:19:39.478Z,14.12
2019-05-14T09:20:38.935Z,14.07
2019-05-14T09:21:39.765Z,15.02
2019-05-14T09:22:39.809Z,16.11
2019-05-14T09:23:39.175Z,16.97
2019-05-14T09:24:38.872Z,17.48
2019-05-14T09:25:47.046Z,18.41
2019-05-14T09:26:39.092Z,18.87
2019-05-14T09:27:38.914Z,18.07
2019-05-14T09:28:39.186Z,17.71
2019-05-14T09:29:39.471Z,16.93
2019-05-14T09:30:38.282Z,16.21
2019-05-14T09:31:39.078Z,15.68
2019-05-14T09:32:38.836Z,15.25
2019-05-14T09:33:38.898Z,14.86
2019-05-14T09:34:39.373Z,14.73
2019-05-14T09:35:38.605Z,14.94
2019-05-14T09:36:39.531Z,14.69
2019-05-14T09:37:39.521Z,14.43
2019-05-14T09:38:41.968Z,14.40
2019-05-14T09:39:38.562Z,14.27
2019-05-14T09:40:39.565Z,14.12
2019-05-14T09:41:38.749Z,14.04
2019-05-14T09:42:39.268Z,14.09
2019-05-14T09:43:39.140Z,14.07
2019-05-14T09:44:38.768Z,13.85
2019-05-14T09:45:38.669Z,13.84
2019-05-14T09:46:38.456Z,13.92
2019-05-14T09:47:38.598Z,14.27
2019-05-14T09:48:38.063Z,14.64
2019-05-14T09:49:38.606Z,14.62
2019-05-14T09:50:38.323Z,14.86
2019-05-14T09:51:38.295Z,15.23
2019-05-14T09:52:38.899Z,15.35
2019-05-14T09:53:38.137Z,15.71
2019-05-14T09:54:39.376Z,15.35
2019-05-14T09:55:38.667Z,15.20
2019-05-14T09:56:36.127Z,15.11
2019-05-14T09:57:36.053Z,15.02
2019-05-14T09:58:38.504Z,15.07
2019-05-14T09:59:38.288Z,15.36
2019-05-14T10:00:35.815Z,15.51
2019-05-14T10:01:37.941Z,15.84
2019-05-14T10:02:35.664Z,15.97
2019-05-14T10:03:35.579Z,15.71
2019-05-14T10:04:35.511Z,15.35
2019-05-14T10:05:35.431Z,15.11
2019-05-14T10:06:35.354Z,14.91
2019-05-14T10:07:35.269Z,14.78
2019-05-14T10:08:35.190Z,14.62
2019-05-14T10:09:35.115Z,14.46
2019-05-14T10:10:35.042Z,14.28
2019-05-14T10:11:34.953Z,14.28
2019-05-14T10:12:39.506Z,14.12
2019-05-14T10:13:34.803Z,13.96
2019-05-14T10:14:34.717Z,13.97
2019-05-14T10:15:34.640Z,13.60
2019-05-14T10:16:34.565Z,13.67
2019-05-14T10:17:34.490Z,13.67
2019-05-14T10:18:34.404Z,13.67
2019-05-14T10:19:34.331Z,13.87
2019-05-14T10:20:41.177Z,13.88
2019-05-14T10:21:34.168Z,13.89
2019-05-14T10:22:34.092Z,14.09
2019-05-14T10:23:34.005Z,14.24
2019-05-14T10:24:33.930Z,14.37
2019-05-14T10:25:33.857Z,14.36
2019-05-14T10:26:33.766Z,14.62
2019-05-14T10:27:33.693Z,14.92
2019-05-14T10:28:33.611Z,14.91
2019-05-14T10:29:33.530Z,14.99
2019-05-14T10:30:33.458Z,14.54
2019-05-14T10:31:33.381Z,14.72
2019-05-14T10:32:33.292Z,14.69
2019-05-14T10:33:33.218Z,14.92
2019-05-14T10:34:33.130Z,15.16
2019-05-14T10:35:33.056Z,15.21
2019-05-14T10:36:32.981Z,15.11
2019-05-14T10:37:32.895Z,15.02
2019-05-14T10:38:32.819Z,15.02
2019-05-14T10:39:32.743Z,14.91
2019-05-14T10:40:32.659Z,14.88
2019-05-14T10:41:32.581Z,14.72
2019-05-14T10:42:32.507Z,14.55
2019-05-14T10:43:32.419Z,14.52
2019-05-14T10:44:32.345Z,14.60
2019-05-14T10:45:32.270Z,14.27
2019-05-14T10:46:32.212Z,14.29
2019-05-14T10:47:32.107Z,14.39
2019-05-14T10:48:32.033Z,14.28
2019-05-14T10:49:31.946Z,14.35
2019-05-14T10:50:31.872Z,14.33
2019-05-14T10:51:31.795Z,14.45
2019-05-14T10:52:31.713Z,14.28
2019-05-14T10:53:31.638Z,15.23
2019-05-14T10:54:31.558Z,15.62
2019-05-14T10:55:31.472Z,15.07
2019-05-14T10:56:31.395Z,15.13
2019-05-14T10:57:31.323Z,15.36
2019-05-14T10:58:31.247Z,15.06
2019-05-14T10:59:31.158Z,14.64
2019-05-14T11:00:31.090Z,14.80
2019-05-14T11:01:31.010Z,14.65
2019-05-14T11:02:30.922Z,14.33
2019-05-14T11:03:30.852Z,14.10
2019-05-14T11:04:34.000Z,14.15
2019-05-14T11:05:30.685Z,13.81
2019-05-14T11:06:30.611Z,13.62
2019-05-14T11:07:30.534Z,13.73
2019-05-14T11:08:30.448Z,14.06
2019-05-14T11:09:30.371Z,15.25
2019-05-14T11:10:30.302Z,15.44
2019-05-14T11:11:30.228Z,15.53
2019-05-14T11:12:30.136Z,16.86
2019-05-14T11:13:30.061Z,16.64
2019-05-14T11:14:31.682Z,16.25
2019-05-14T11:15:29.898Z,16.12
2019-05-14T11:16:29.825Z,17.66
2019-05-14T11:17:29.747Z,18.51
2019-05-14T11:18:29.686Z,19.73
2019-05-14T11:19:29.586Z,20.39
2019-05-14T11:20:31.225Z,19.28
2019-05-14T11:21:30.118Z,18.10
2019-05-14T11:22:29.361Z,17.25
2019-05-14T11:23:29.774Z,16.08
2019-05-14T11:24:29.642Z,15.69
2019-05-14T11:25:29.137Z,15.36
2019-05-14T11:26:29.462Z,14.81
2019-05-14T11:27:29.210Z,14.28
2019-05-14T11:28:28.947Z,13.84
2019-05-14T11:29:29.521Z,13.87
2019-05-14T11:30:28.970Z,13.91
2019-05-14T11:31:29.486Z,14.02
2019-05-14T11:32:29.106Z,13.96
2019-05-14T11:33:29.664Z,13.96
2019-05-14T11:34:28.887Z,13.85
2019-05-14T11:35:28.842Z,13.63
2019-05-14T11:36:29.278Z,13.73
2019-05-14T11:37:28.241Z,13.63
2019-05-14T11:38:33.763Z,13.48
2019-05-14T11:39:28.808Z,13.59
2019-05-14T11:40:29.371Z,13.69
2019-05-14T11:41:27.889Z,13.95
2019-05-14T11:42:31.467Z,14.27
2019-05-14T11:43:28.703Z,14.80
2019-05-14T11:44:28.622Z,14.89
2019-05-14T11:45:27.576Z,15.11
2019-05-14T11:46:41.719Z,15.09
2019-05-14T11:47:27.414Z,15.13
2019-05-14T11:48:27.353Z,14.89
2019-05-14T11:49:27.271Z,14.84
2019-05-14T11:50:28.702Z,14.52
2019-05-14T11:51:56.155Z,14.36
2019-05-14T11:52:28.696Z,13.88
2019-05-14T11:53:26.939Z,13.67
2019-05-14T11:54:29.044Z,13.49
2019-05-14T11:55:26.792Z,13.60
2019-05-14T11:56:26.702Z,13.55
2019-05-14T11:57:26.627Z,13.52
2019-05-14T11:58:29.258Z,13.66
2019-05-14T11:59:28.335Z,13.64
2019-05-14T12:00:29.162Z,13.60
2019-05-14T12:01:26.316Z,13.71
2019-05-14T12:02:28.796Z,13.69
2019-05-14T12:03:28.461Z,13.67
2019-05-14T12:04:28.223Z,13.70
2019-05-14T12:05:25.991Z,13.81
2019-05-14T12:06:25.916Z,13.97
2019-05-14T12:07:27.942Z,14.07
2019-05-14T12:08:25.759Z,13.99
2019-05-14T12:09:28.207Z,13.95
2019-05-14T12:10:25.592Z,13.97
2019-05-14T12:11:25.516Z,13.85
2019-05-14T12:12:25.436Z,13.91
2019-05-14T12:13:29.859Z,13.97
2019-05-14T12:14:25.278Z,13.91
2019-05-14T12:15:25.192Z,13.95
2019-05-14T12:16:25.119Z,13.95
2019-05-14T12:17:25.044Z,13.92
2019-05-14T12:18:24.953Z,13.91
2019-05-14T12:19:24.879Z,13.97
2019-05-14T12:20:24.792Z,13.87
2019-05-14T12:21:24.718Z,13.85
2019-05-14T12:22:24.649Z,13.99
2019-05-14T12:23:24.555Z,13.81
2019-05-14T12:24:24.486Z,13.77
2019-05-14T12:25:24.407Z,13.95
2019-05-14T12:26:24.329Z,14.09
2019-05-14T12:27:24.244Z,14.33
2019-05-14T12:28:24.156Z,13.91
2019-05-14T12:29:24.086Z,14.04
2019-05-14T12:30:23.994Z,14.29
2019-05-14T12:31:23.918Z,14.33
2019-05-14T12:32:23.846Z,14.57
2019-05-14T12:33:23.782Z,14.54
2019-05-14T12:34:23.681Z,14.72
2019-05-14T12:35:23.607Z,14.61
2019-05-14T12:36:23.520Z,14.46
2019-05-14T12:37:23.445Z,14.98
2019-05-14T12:38:23.358Z,15.07
2019-05-14T12:39:23.281Z,15.82
2019-05-14T12:40:23.220Z,16.46
2019-05-14T12:41:23.121Z,17.41
2019-05-14T12:42:23.049Z,17.70
2019-05-14T12:43:22.969Z,18.29
2019-05-14T12:44:22.897Z,18.58
2019-05-14T12:45:22.820Z,18.54
2019-05-14T12:46:22.735Z,17.95
2019-05-14T12:47:22.662Z,17.19
2019-05-14T12:48:22.584Z,16.93
2019-05-14T12:49:22.509Z,16.56
2019-05-14T12:50:22.432Z,16.04
2019-05-14T12:51:22.346Z,16.09
2019-05-14T12:52:25.724Z,15.78
2019-05-14T12:53:22.208Z,15.69
2019-05-14T12:54:22.122Z,15.69
2019-05-14T12:55:22.048Z,15.87
2019-05-14T12:56:21.971Z,16.21
2019-05-14T12:57:21.896Z,16.38
2019-05-14T12:58:21.823Z,15.80
2019-05-14T12:59:21.734Z,15.59
2019-05-14T13:00:21.676Z,15.54
2019-05-14T13:01:21.583Z,15.44
2019-05-14T13:02:21.509Z,15.35